默认 日期 大小 文件数 浏览量 最新下载 xml
fullhd磁力链接相关资源由用户搜索指令自动获取,结果来源于网络,本站不存储任何资料,亦不承担任何责任,请于24小时内删除,搜索到3979个磁力,用时4ms。
    {"alt-torrent.com.mp4": 4001994, "www.alt-torrent.com.txt": 266, "POR FAVOR!.....COMPARTAN!.txt": 117, "War for the Planet of the Apes (2017) FullHD LAT - ZeiZ.jpg": 81234, "War for the Planet of the Apes (2017) FullHD LAT - ZeiZ.mkv": 12199923498}
创建时间: 2018-11-02 23:42:13 大小:11.37 GB 文件数量:5 热度:15 最近下载:2023-04-07 10:40:03
    {"18Yoga_Jenny_Glam_1080.mp4": 629464458, "www.hentaionline.in - watch hentai online.url": 112, "www.NewMovieTrailers.eu - new movies coming.url": 53, "www.HomeMadeSexVideo.pw - watch for free now!.url": 53, "www.JapanesePornTube69.com - watch JAV porn ...
创建时间: 2018-11-02 23:44:09 大小:600.3 MB 文件数量:5 热度:53 最近下载:2025-09-02 11:09:02
    {"sample.mkv": 39563028, "www.alt-torrent.com.txt": 400, "POR FAVOR!.....COMPARTAN!.txt": 111, "Now You See Me 2 (2016) FullHD LAT - ZeiZ.jpg": 92802, "Now You See Me 2 (2016) FullHD LAT - ZeiZ.mkv": 10007846573}
创建时间: 2018-11-02 23:57:19 大小:9.36 GB 文件数量:5 热度:13 最近下载:2025-09-24 06:35:02
    {"Mazhor.S03E01.HDTV.1080p.mkv": 2207788424, "Mazhor.S03E02.HDTV.1080p.mkv": 2057775724, "Mazhor.S03E03.HDTV.1080p.mkv": 2270666346, "Mazhor.S03E04.HDTV.1080p.mkv": 2192249766}
创建时间: 2018-11-03 01:41:43 大小:8.13 GB 文件数量:4 热度:13 最近下载:2025-01-08 07:34:03
    {"Leer.txt": 331, "sample.mkv": 63150843, "www.alt-torrent.com.txt": 405, "POR FAVOR!.....COMPARTAN!.txt": 111, "Predator (1987) FullHD LAT - Pitufo180.jpg": 78097, "Predator (1987) FullHD LAT - Pitufo180.mkv": 13774888455}
创建时间: 2018-11-03 02:48:25 大小:12.89 GB 文件数量:6 热度:15 最近下载:2023-04-07 12:30:02
    {"443_siri_bts-hd_1080p.mp4": 1014510193, "456_devon_bts-hd_1080p.mp4": 1153765363, "443_2siri_full-hd_1080p.mp4": 3261694071, "456_devon_full-hd_1080p.mp4": 2775156213, "441_katsuni_bts-hd_1080p.mp4": 1197531346, "473_2j_love_bts-hd_1080p.mp4": 380701581, ...
创建时间: 2018-11-03 16:48:15 大小:217.84 GB 文件数量:113 热度:250 最近下载:2025-10-03 15:48:02
    {"www.alt-torrent.com.txt": 400, "www.alt-torrent.com.url": 53, "POR FAVOR!.....COMPARTAN!.txt": 117, "Halloween 6 The Curse of Michael Myers (1995) FullHD- Juher.mkv": 1992596397}
创建时间: 2018-11-03 17:40:40 大小:1.86 GB 文件数量:4 热度:17 最近下载:2024-12-23 19:28:02
    ... ": 111, "Miracles from Heaven (2016) FullHD LAT - Pitufo180.jpg": 70072, "Miracles ... from Heaven (2016) FullHD LAT - Pitufo180.mkv": 9048343962, "C ...
创建时间: 2018-11-03 21:28:46 大小:8.46 GB 文件数量:7 热度:15 最近下载:2025-02-22 02:58:03
    ... , "Insidious - The Last Key (2018) FullHD LAT - Pitufo180.jpg": 56462, "Insidious ... - The Last Key (2018) FullHD LAT - Pitufo180.mkv": 8713219161}
创建时间: 2018-11-03 22:54:41 大小:8.18 GB 文件数量:7 热度:13 最近下载:2023-04-08 01:20:02
    {"alt-torrent.com.mp4": 4001994, "www.alt-torrent.com.txt": 266, "POR FAVOR!.....COMPARTAN!.txt": 117, "Get Out (2017) FullHD LAT - ZeiZ.jpg": 81899, "Get Out (2017) FullHD LAT - ZeiZ.mkv": 8515562114}
创建时间: 2018-11-04 00:00:21 大小:7.93 GB 文件数量:5 热度:13 最近下载:2025-03-06 23:52:04
    ... Z Season 4 BrRip Hi8 FullHD 1080p Spa Latino, Japanese, English ...
创建时间: 2018-11-04 00:12:47 大小:12.24 GB 文件数量:36 热度:27 最近下载:2025-02-09 21:47:03
    {"www.alt-torrent.com.txt": 400, "POR FAVOR!.....COMPARTAN!.txt": 111, "Ice Age - Collision Course (2016) FullHD LAT - ZeiZ.jpg": 84377, "Ice Age - Collision Course (2016) FullHD LAT - ZeiZ.mkv": 5010271232}
创建时间: 2018-11-04 00:59:45 大小:4.67 GB 文件数量:4 热度:13 最近下载:2024-10-22 07:59:01
    ... .jpg": 300552, "Wild Tales (2014) FullHD 1080p.mkv": 7465532580, "Wild Tales ... (2014) FullHD 1080p Eng.srt": 83041, "Wild ... Tales (2014) FullHD 1080p Spa.srt": 96411}
创建时间: 2018-11-04 01:09:00 大小:6.95 GB 文件数量:8 热度:13 最近下载:2023-04-08 03:20:04
创建时间: 2018-11-04 01:34:21 大小:9.41 GB 文件数量:8 热度:70 最近下载:2025-08-06 04:25:04
    {"sample.mkv": 31914449, "www.alt-torrent.com.txt": 400, "POR FAVOR!.....COMPARTAN!.txt": 111, "Captain America - Civil War (2016) FullHD LAT - ZeiZ.jpg": 95344, "Captain America - Civil War (2016) FullHD LAT - ZeiZ.mkv": 12448258658}
创建时间: 2018-11-04 03:59:12 大小:11.62 GB 文件数量:5 热度:19 最近下载:2025-01-21 23:29:11
    {"alt-torrent.com.mp4": 4001994, "www.alt-torrent.com.txt": 266, "POR FAVOR!.....COMPARTAN!.txt": 117, "Jingle All the Way (1996) FullHD LAT - ZeiZ.jpg": 88759, "Jingle All the Way (1996) FullHD LAT - ZeiZ.mkv": 6312075157}
创建时间: 2018-11-04 05:36:19 大小:5.88 GB 文件数量:5 热度:14 最近下载:2024-12-01 01:58:01
    {"Leer.txt": 331, "sample.mkv": 29638487, "www.alt-torrent.com.url": 53, "POR FAVOR!.....COMPARTAN!.txt": 111, "Star Trek - First Contact (1996) FullHD LAT - Mr.Tiny.jpg": 102609, "Star Trek - First Contact (1996) FullHD LAT - Mr.Tiny.mkv": 9061820665}
创建时间: 2018-11-04 05:51:38 大小:8.47 GB 文件数量:6 热度:18 最近下载:2023-04-08 05:50:05
    {"Leer.txt": 331, "sample.mkv": 27837978, "www.alt-torrent.com.txt": 405, "POR FAVOR!.....COMPARTAN!.txt": 111, "Ri¢hie Ri¢h (1994) FullHD LAT - Pitufo180.jpg": 49823, "Ri¢hie Ri¢h (1994) FullHD LAT - Pitufo180.mkv": 4210720174}
创建时间: 2018-11-04 06:05:52 大小:3.95 GB 文件数量:6 热度:23 最近下载:2025-10-17 17:28:02
    {"Leer.txt": 331, ".DS_Store": 6148, "www.alt-torrent.com.txt": 405, "POR FAVOR!.....COMPARTAN!.txt": 111, "Spectre.2015.1080p.FullHD.By.Pitufo.mkv": 12094157961}
创建时间: 2018-11-04 06:21:43 大小:11.26 GB 文件数量:5 热度:17 最近下载:2025-05-11 01:56:02
    ... ": 111, "Super Mario Bros. (1993) FullHD LAT - Pitufo180.jpg": 83160, "Super ... Mario Bros. (1993) FullHD LAT - Pitufo180.mkv": 8358915461, "C ...
创建时间: 2018-11-04 10:06:38 大小:7.82 GB 文件数量:7 热度:16 最近下载:2025-02-05 17:51:03